Tropical Cyclones
[Index]
Main Index Home Page Stock Weather Photos Extreme Storms Discussion Storm News and Storm Chasing Reports Tropical Cyclones / Hurricanes / Typhoons Weather Data and Links Wild Fires / Bushfires Weather Observation Techniques Weather Picture Catalogue Tornado Pictures and Reports Stock Video Footage and DVDs for sale
Season 1962-1963 Tropical Cyclone 196338 Track Map
Season 1962-1963 Summaries: [BoM-AU] [JTWC-AU] [JTWC-SIO] [JTWC-SPAC] [JTWC-SH]
<<- Previous TC | JTWC 1962-1963 Season | Next TC ->>

click for intensity scale information  Lat/long Grid: Show Hide

 Date Labels: Show Hide

Joint Typhoon Warning Centre Cyclone Data

Name: 196338
Number: 485 / 6338

07 Mar 1963 12:00 UTC to 17 Mar 1963 00:00 UTC

    date/time    lat    long     hPa   cat  kts
1963-03-07 12   20.6   161.2W                             
1963-03-07 18   20.1   161.0W                             
1963-03-08 00   19.5   161.3W                             
1963-03-08 06   18.8   162.1W                             
1963-03-08 12   18.1   163.0W                             
1963-03-08 18   17.9   164.0W                             
1963-03-09 00   17.8   165.0W                             
1963-03-09 06   17.8   165.9W                             
1963-03-09 12   17.8   166.8W                             
1963-03-09 18   17.6   167.7W                             
1963-03-10 00   17.3   168.6W                             
1963-03-10 06   16.7   169.5W                             
1963-03-10 12   16.2   170.3W                             
1963-03-10 18   16.0   171.5W                             
1963-03-11 00   16.2   172.8W                             
1963-03-11 06   16.6   173.7W                             
1963-03-11 12   17.0   174.4W                             
1963-03-11 18   17.4   175.1W                             
1963-03-12 00   17.9   175.7W                             
1963-03-12 06   18.4   176.2W                             
1963-03-12 12   19.0   176.4W                             
1963-03-12 18   19.7   176.0W                             
1963-03-13 00   20.3   175.5W                             
1963-03-13 06   20.7   175.2W                             
1963-03-13 12   20.9   174.9W                             
1963-03-13 18   20.9   174.6W                             
1963-03-14 00   20.9   173.9W                             
1963-03-14 06   21.1   172.5W                             
1963-03-14 12   21.5   171.0W                             
1963-03-14 18   21.9   169.8W                             
1963-03-15 00   22.4   168.5W                             
1963-03-15 06   22.9   167.1W                             
1963-03-15 12   23.4   165.6W                             
1963-03-15 18   24.1   164.1W                             
1963-03-16 00   25.0   162.5W                             
1963-03-16 06   26.0   160.0W                             
1963-03-16 12   27.0   157.0W                             
1963-03-16 18   28.1   154.0W                             
1963-03-17 00   29.4   150.9W                             
Winds are 1-min average.

Tropical cyclone tracks developed by Michael Bath using data from the Joint Typhoon Warning Centre Best Tracks and Google Maps.


[Australian Severe Weather index] [Copyright Notice] [Email Contacts] [Search This Site] [Privacy Policy]
Document: tropical_cyclone_196338.htm Updated: 18 September 2016